createdAt,value
2023-03-10T00:22:57.683Z,14.93
2023-03-10T04:01:53.062Z,13.35
2023-03-10T04:14:04.296Z,12.02
2023-03-10T04:20:21.903Z,10.20
2023-03-10T04:31:33.577Z,13.10
2023-03-10T04:36:38.464Z,13.30
2023-03-10T04:41:51.995Z,13.98
2023-03-10T04:46:54.133Z,13.27
2023-03-10T04:51:58.281Z,14.57
2023-03-10T04:57:00.232Z,14.55
2023-03-10T05:01:56.996Z,13.82
2023-03-10T05:06:53.590Z,13.65
2023-03-10T05:11:50.350Z,12.30
2023-03-10T05:16:49.608Z,12.27
2023-03-10T05:21:46.138Z,12.93
2023-03-10T05:26:45.148Z,12.45
2023-03-10T05:31:42.028Z,12.80
2023-03-10T05:36:43.289Z,14.25
2023-03-10T05:41:42.173Z,14.98
2023-03-10T05:46:41.082Z,14.05
2023-03-10T05:51:37.586Z,14.38
2023-03-10T05:56:36.672Z,14.30
2023-03-10T06:01:34.293Z,14.30
2023-03-10T06:06:30.829Z,14.93
2023-03-10T06:11:27.582Z,13.98
2023-03-10T06:16:24.109Z,12.55
2023-03-10T06:34:27.148Z,13.45
2023-03-10T06:39:35.097Z,12.20
2023-03-10T06:51:42.765Z,11.50
2023-03-10T06:56:39.471Z,11.63
2023-03-10T07:46:00.456Z,11.48
2023-03-10T07:51:28.932Z,10.98
2023-03-10T11:02:26.063Z,16.00
2023-03-10T12:20:12.326Z,15.85
2023-03-10T13:20:16.343Z,11.60
2023-03-10T14:49:40.185Z,10.45
2023-03-10T14:54:37.034Z,10.80
2023-03-10T14:59:33.731Z,11.88
2023-03-10T15:04:30.263Z,10.93
2023-03-10T15:09:27.081Z,11.95
2023-03-10T15:14:36.887Z,11.25
2023-03-10T15:19:33.399Z,11.20
2023-03-10T15:24:30.070Z,10.38
2023-03-10T15:29:26.554Z,10.95
2023-03-10T15:34:25.072Z,11.02
2023-03-10T15:39:30.981Z,11.15
2023-03-10T15:44:28.308Z,10.07
2023-03-10T15:49:24.818Z,10.05
2023-03-10T15:54:21.337Z,11.15
2023-03-10T15:59:17.822Z,10.60
2023-03-10T16:04:14.264Z,10.52
2023-03-10T16:09:10.750Z,10.52
2023-03-10T16:14:07.633Z,10.52
2023-03-10T16:19:04.313Z,8.98
2023-03-10T16:24:00.928Z,8.90
2023-03-10T16:28:57.526Z,9.40
2023-03-10T16:33:54.500Z,9.88
2023-03-10T16:38:54.682Z,9.82
2023-03-10T16:43:51.534Z,8.82
2023-03-10T16:49:26.281Z,9.35
2023-03-10T16:54:26.053Z,8.90
2023-03-10T16:59:27.684Z,10.23
2023-03-10T17:04:45.201Z,9.98
2023-03-10T17:09:41.874Z,10.50
2023-03-10T17:14:52.161Z,9.90
2023-03-10T17:19:50.757Z,9.32
2023-03-10T17:24:52.932Z,9.77
2023-03-10T17:29:49.410Z,9.32
2023-03-10T17:34:51.874Z,10.73
2023-03-10T17:39:48.412Z,9.52
2023-03-10T17:44:49.029Z,9.52
2023-03-10T17:49:45.527Z,10.48
2023-03-10T17:54:42.068Z,10.60
2023-03-10T17:59:39.003Z,10.00
2023-03-10T18:04:35.835Z,10.18
2023-03-10T18:09:32.435Z,9.95
2023-03-10T18:14:28.912Z,11.07
2023-03-10T18:19:25.386Z,10.27
2023-03-10T18:24:22.335Z,10.00
2023-03-10T18:29:18.807Z,9.95
2023-03-10T18:34:15.685Z,11.23
2023-03-10T18:39:12.146Z,10.05
2023-03-10T18:44:08.571Z,11.18
2023-03-10T18:49:05.054Z,10.67
2023-03-10T18:54:01.549Z,10.30
2023-03-10T18:58:58.027Z,11.18
2023-03-10T19:03:54.568Z,11.15
2023-03-10T19:08:53.337Z,10.43
2023-03-10T19:13:50.986Z,9.85
2023-03-10T19:18:47.455Z,8.95
2023-03-10T19:23:45.506Z,8.73
2023-03-10T19:28:41.968Z,9.95
2023-03-10T19:33:39.791Z,7.22
2023-03-10T19:38:37.466Z,10.30
2023-03-10T19:43:35.746Z,10.80
2023-03-10T19:48:32.483Z,10.52
2023-03-10T19:53:29.702Z,9.75
2023-03-10T19:58:26.349Z,9.65
2023-03-10T20:03:23.383Z,8.95
2023-03-10T20:13:16.304Z,9.30
2023-03-10T20:18:12.776Z,9.55
2023-03-10T20:23:09.296Z,9.30
2023-03-10T20:28:05.734Z,5.90
2023-03-10T20:33:02.552Z,8.00
2023-03-10T20:38:00.187Z,8.00
2023-03-10T20:42:59.610Z,8.20
2023-03-10T20:47:56.337Z,7.75
2023-03-10T20:52:52.897Z,7.72
2023-03-10T20:57:50.696Z,7.00
2023-03-10T21:02:48.611Z,7.40
2023-03-10T21:07:45.308Z,7.05
2023-03-10T21:12:43.028Z,7.53
2023-03-10T21:17:39.490Z,7.13
2023-03-10T21:22:37.296Z,6.95
2023-03-10T21:27:35.388Z,7.28
2023-03-10T21:32:32.884Z,6.40
2023-03-10T21:37:29.395Z,5.60
2023-03-10T21:42:25.870Z,5.55
2023-03-10T21:47:22.350Z,5.30
2023-03-10T21:52:18.811Z,3.73
2023-03-10T21:57:15.263Z,5.97
2023-03-10T22:02:24.267Z,4.40
2023-03-10T22:07:20.780Z,5.13
2023-03-10T22:12:18.480Z,5.65
2023-03-10T22:17:14.990Z,6.25
2023-03-10T22:22:11.443Z,5.97
2023-03-10T22:27:07.886Z,6.18
2023-03-10T22:32:04.507Z,6.07
2023-03-10T22:37:00.993Z,5.82
2023-03-10T22:41:57.465Z,5.80
2023-03-10T22:47:00.145Z,6.35
2023-03-10T22:51:56.589Z,5.90
2023-03-10T22:56:53.017Z,5.72
2023-03-10T23:01:51.856Z,6.50
2023-03-10T23:06:48.347Z,5.68
2023-03-10T23:11:46.555Z,5.88
2023-03-10T23:16:43.133Z,5.93
2023-03-10T23:21:39.571Z,6.07
2023-03-10T23:26:37.380Z,5.90
2023-03-10T23:31:33.973Z,5.68
2023-03-10T23:36:32.205Z,5.72
2023-03-10T23:41:28.645Z,7.40
2023-03-10T23:46:25.074Z,6.20
2023-03-10T23:51:21.544Z,4.25
2023-03-10T23:56:17.972Z,6.20
